sensor_id;sensor_type;location;lat;lon;timestamp;temperature;humidity
324;DHT22;149;51.094;17.002;2022-10-16T00:00:05;14.30;99.90
324;DHT22;149;51.094;17.002;2022-10-16T00:02:33;14.30;99.90
324;DHT22;149;51.094;17.002;2022-10-16T00:05:02;14.20;99.90
324;DHT22;149;51.094;17.002;2022-10-16T00:07:29;14.10;99.90
324;DHT22;149;51.094;17.002;2022-10-16T00:09:56;14.20;99.90
324;DHT22;149;51.094;17.002;2022-10-16T00:12:25;14.20;99.90
324;DHT22;149;51.094;17.002;2022-10-16T00:14:53;14.10;99.90
324;DHT22;149;51.094;17.002;2022-10-16T00:17:21;14.10;99.90
324;DHT22;149;51.094;17.002;2022-10-16T00:19:48;14.20;99.90
324;DHT22;149;51.094;17.002;2022-10-16T00:22:16;14.20;99.90
324;DHT22;149;51.094;17.002;2022-10-16T00:24:44;14.10;99.90
324;DHT22;149;51.094;17.002;2022-10-16T00:27:12;13.90;99.90
324;DHT22;149;51.094;17.002;2022-10-16T00:29:43;13.80;99.90
324;DHT22;149;51.094;17.002;2022-10-16T00:32:13;13.70;99.90
324;DHT22;149;51.094;17.002;2022-10-16T00:34:43;13.70;99.90
324;DHT22;149;51.094;17.002;2022-10-16T00:37:14;13.60;99.90
324;DHT22;149;51.094;17.002;2022-10-16T00:39:52;13.70;99.90
324;DHT22;149;51.094;17.002;2022-10-16T00:42:21;13.70;99.90
324;DHT22;149;51.094;17.002;2022-10-16T00:44:54;13.60;99.90
324;DHT22;149;51.094;17.002;2022-10-16T00:47:42;13.60;99.90
324;DHT22;149;51.094;17.002;2022-10-16T00:50:33;13.60;99.90
324;DHT22;149;51.094;17.002;2022-10-16T00:53:03;13.50;99.90
324;DHT22;149;51.094;17.002;2022-10-16T00:55:30;13.60;99.90
324;DHT22;149;51.094;17.002;2022-10-16T00:57:58;13.60;99.90
324;DHT22;149;51.094;17.002;2022-10-16T01:00:26;13.80;99.90
324;DHT22;149;51.094;17.002;2022-10-16T01:02:59;13.90;99.90
324;DHT22;149;51.094;17.002;2022-10-16T01:05:50;13.80;99.90
324;DHT22;149;51.094;17.002;2022-10-16T01:08:34;13.80;99.90
324;DHT22;149;51.094;17.002;2022-10-16T01:11:22;13.80;99.90
324;DHT22;149;51.094;17.002;2022-10-16T01:14:06;13.90;99.90
324;DHT22;149;51.094;17.002;2022-10-16T01:16:55;13.90;99.90
324;DHT22;149;51.094;17.002;2022-10-16T01:22:13;13.90;99.90
324;DHT22;149;51.094;17.002;2022-10-16T01:24:48;13.80;99.90
324;DHT22;149;51.094;17.002;2022-10-16T01:27:25;13.70;99.90
324;DHT22;149;51.094;17.002;2022-10-16T01:40:42;13.70;99.90
324;DHT22;149;51.094;17.002;2022-10-16T01:43:16;13.70;99.90
324;DHT22;149;51.094;17.002;2022-10-16T01:45:49;13.70;99.90
324;DHT22;149;51.094;17.002;2022-10-16T01:48:23;13.70;99.90
324;DHT22;149;51.094;17.002;2022-10-16T01:51:03;13.70;99.90
324;DHT22;149;51.094;17.002;2022-10-16T01:53:31;13.70;99.90
324;DHT22;149;51.094;17.002;2022-10-16T01:56:00;13.80;99.90
324;DHT22;149;51.094;17.002;2022-10-16T01:58:30;13.90;99.90
324;DHT22;149;51.094;17.002;2022-10-16T02:01:07;13.90;99.90
324;DHT22;149;51.094;17.002;2022-10-16T02:04:08;13.90;99.90
324;DHT22;149;51.094;17.002;2022-10-16T02:06:37;13.80;99.90
324;DHT22;149;51.094;17.002;2022-10-16T02:09:04;13.90;99.90
324;DHT22;149;51.094;17.002;2022-10-16T02:11:40;13.80;99.90
324;DHT22;149;51.094;17.002;2022-10-16T02:14:08;14.00;99.90
324;DHT22;149;51.094;17.002;2022-10-16T02:16:41;13.90;99.90
324;DHT22;149;51.094;17.002;2022-10-16T02:19:10;13.90;99.90
324;DHT22;149;51.094;17.002;2022-10-16T02:21:59;14.00;99.90
324;DHT22;149;51.094;17.002;2022-10-16T02:24:43;14.10;99.90
324;DHT22;149;51.094;17.002;2022-10-16T02:27:32;14.10;99.90
324;DHT22;149;51.094;17.002;2022-10-16T02:30:29;14.00;99.90
324;DHT22;149;51.094;17.002;2022-10-16T02:32:59;13.90;99.90
324;DHT22;149;51.094;17.002;2022-10-16T02:35:31;13.90;99.90
324;DHT22;149;51.094;17.002;2022-10-16T02:38:01;13.90;99.90
324;DHT22;149;51.094;17.002;2022-10-16T02:40:29;13.80;99.90
324;DHT22;149;51.094;17.002;2022-10-16T02:42:58;13.70;99.90
324;DHT22;149;51.094;17.002;2022-10-16T02:45:29;13.80;99.90
324;DHT22;149;51.094;17.002;2022-10-16T02:48:00;13.80;99.90
324;DHT22;149;51.094;17.002;2022-10-16T02:50:27;13.80;99.90
324;DHT22;149;51.094;17.002;2022-10-16T02:52:54;13.80;99.90
324;DHT22;149;51.094;17.002;2022-10-16T02:55:31;13.80;99.90
324;DHT22;149;51.094;17.002;2022-10-16T02:57:59;13.70;99.90
324;DHT22;149;51.094;17.002;2022-10-16T03:00:27;13.70;99.90
324;DHT22;149;51.094;17.002;2022-10-16T03:02:55;13.70;99.90
324;DHT22;149;51.094;17.002;2022-10-16T03:05:22;13.80;99.90
324;DHT22;149;51.094;17.002;2022-10-16T03:07:52;14.00;99.90
324;DHT22;149;51.094;17.002;2022-10-16T03:10:21;14.00;99.90
324;DHT22;149;51.094;17.002;2022-10-16T03:12:49;14.00;99.90
324;DHT22;149;51.094;17.002;2022-10-16T03:15:17;14.20;99.90
324;DHT22;149;51.094;17.002;2022-10-16T03:17:45;14.30;99.90
324;DHT22;149;51.094;17.002;2022-10-16T03:20:12;14.40;99.90
324;DHT22;149;51.094;17.002;2022-10-16T03:22:40;14.40;99.90
324;DHT22;149;51.094;17.002;2022-10-16T03:25:11;14.40;99.90
324;DHT22;149;51.094;17.002;2022-10-16T03:27:39;14.50;99.90
324;DHT22;149;51.094;17.002;2022-10-16T03:30:07;14.40;99.90
324;DHT22;149;51.094;17.002;2022-10-16T03:32:36;14.30;99.90
324;DHT22;149;51.094;17.002;2022-10-16T03:35:03;14.20;99.90
324;DHT22;149;51.094;17.002;2022-10-16T03:37:32;14.30;99.90
324;DHT22;149;51.094;17.002;2022-10-16T03:39:59;14.40;99.90
324;DHT22;149;51.094;17.002;2022-10-16T03:42:26;14.30;99.90
324;DHT22;149;51.094;17.002;2022-10-16T03:44:56;14.30;99.90
324;DHT22;149;51.094;17.002;2022-10-16T03:47:23;14.40;99.90
324;DHT22;149;51.094;17.002;2022-10-16T03:49:51;14.30;99.90
324;DHT22;149;51.094;17.002;2022-10-16T03:52:18;14.50;99.90
324;DHT22;149;51.094;17.002;2022-10-16T03:54:46;14.50;99.90
324;DHT22;149;51.094;17.002;2022-10-16T03:57:13;14.40;99.90
324;DHT22;149;51.094;17.002;2022-10-16T03:59:40;14.30;99.90
324;DHT22;149;51.094;17.002;2022-10-16T04:02:09;14.30;99.90
324;DHT22;149;51.094;17.002;2022-10-16T04:04:38;14.30;99.90
324;DHT22;149;51.094;17.002;2022-10-16T04:07:05;14.30;99.90
324;DHT22;149;51.094;17.002;2022-10-16T04:09:38;14.30;99.90
324;DHT22;149;51.094;17.002;2022-10-16T04:12:06;14.40;99.90
324;DHT22;149;51.094;17.002;2022-10-16T04:14:36;14.20;99.90
324;DHT22;149;51.094;17.002;2022-10-16T04:17:05;14.10;99.90
324;DHT22;149;51.094;17.002;2022-10-16T04:19:35;14.10;99.90
324;DHT22;149;51.094;17.002;2022-10-16T04:22:09;14.00;99.90
324;DHT22;149;51.094;17.002;2022-10-16T04:24:41;14.00;99.90
324;DHT22;149;51.094;17.002;2022-10-16T04:27:12;13.90;99.90
324;DHT22;149;51.094;17.002;2022-10-16T04:29:44;13.90;99.90
324;DHT22;149;51.094;17.002;2022-10-16T04:32:11;13.90;99.90
324;DHT22;149;51.094;17.002;2022-10-16T04:34:51;13.80;99.90
324;DHT22;149;51.094;17.002;2022-10-16T04:37:24;13.80;99.90
324;DHT22;149;51.094;17.002;2022-10-16T04:39:52;13.80;99.90
324;DHT22;149;51.094;17.002;2022-10-16T04:42:21;13.90;99.90
324;DHT22;149;51.094;17.002;2022-10-16T04:44:50;13.90;99.90
324;DHT22;149;51.094;17.002;2022-10-16T04:47:17;13.70;99.90
324;DHT22;149;51.094;17.002;2022-10-16T04:49:44;13.60;99.90
324;DHT22;149;51.094;17.002;2022-10-16T04:52:12;13.60;99.90
324;DHT22;149;51.094;17.002;2022-10-16T04:54:42;13.70;99.90
324;DHT22;149;51.094;17.002;2022-10-16T04:57:14;13.70;99.90
324;DHT22;149;51.094;17.002;2022-10-16T04:59:41;13.80;99.90
324;DHT22;149;51.094;17.002;2022-10-16T05:02:09;13.80;99.90
324;DHT22;149;51.094;17.002;2022-10-16T05:04:38;13.70;99.90
324;DHT22;149;51.094;17.002;2022-10-16T05:07:05;13.80;99.90
324;DHT22;149;51.094;17.002;2022-10-16T05:09:38;13.80;99.90
324;DHT22;149;51.094;17.002;2022-10-16T05:12:07;13.70;99.90
324;DHT22;149;51.094;17.002;2022-10-16T05:14:38;13.70;99.90
324;DHT22;149;51.094;17.002;2022-10-16T05:17:09;13.70;99.90
324;DHT22;149;51.094;17.002;2022-10-16T05:19:39;13.80;99.90
324;DHT22;149;51.094;17.002;2022-10-16T05:22:06;13.70;99.90
324;DHT22;149;51.094;17.002;2022-10-16T05:24:36;13.60;99.90
324;DHT22;149;51.094;17.002;2022-10-16T05:27:04;13.60;99.90
324;DHT22;149;51.094;17.002;2022-10-16T05:29:34;13.60;99.90
324;DHT22;149;51.094;17.002;2022-10-16T05:32:03;13.60;99.90
324;DHT22;149;51.094;17.002;2022-10-16T05:34:30;13.60;99.90
324;DHT22;149;51.094;17.002;2022-10-16T05:37:00;13.60;99.90
324;DHT22;149;51.094;17.002;2022-10-16T05:39:28;13.60;99.90
324;DHT22;149;51.094;17.002;2022-10-16T05:42:11;13.70;99.90
324;DHT22;149;51.094;17.002;2022-10-16T05:44:42;13.90;99.90
324;DHT22;149;51.094;17.002;2022-10-16T05:47:12;14.10;99.90
324;DHT22;149;51.094;17.002;2022-10-16T05:49:42;14.20;99.90
324;DHT22;149;51.094;17.002;2022-10-16T05:52:33;14.30;99.90
324;DHT22;149;51.094;17.002;2022-10-16T05:55:22;14.40;99.90
324;DHT22;149;51.094;17.002;2022-10-16T05:57:56;14.40;99.90
324;DHT22;149;51.094;17.002;2022-10-16T06:00:25;14.60;99.90
324;DHT22;149;51.094;17.002;2022-10-16T06:02:58;14.60;99.90
324;DHT22;149;51.094;17.002;2022-10-16T06:05:26;14.60;99.90
324;DHT22;149;51.094;17.002;2022-10-16T06:07:56;14.70;99.90
324;DHT22;149;51.094;17.002;2022-10-16T06:10:27;14.80;99.90
324;DHT22;149;51.094;17.002;2022-10-16T06:12:57;14.80;99.90
324;DHT22;149;51.094;17.002;2022-10-16T06:15:26;14.90;99.90
324;DHT22;149;51.094;17.002;2022-10-16T06:17:54;15.10;99.90
324;DHT22;149;51.094;17.002;2022-10-16T06:20:21;15.00;99.90
324;DHT22;149;51.094;17.002;2022-10-16T06:22:48;14.90;99.90
324;DHT22;149;51.094;17.002;2022-10-16T06:25:15;15.00;99.90
324;DHT22;149;51.094;17.002;2022-10-16T06:27:44;15.00;99.90
324;DHT22;149;51.094;17.002;2022-10-16T06:30:22;15.00;99.90
324;DHT22;149;51.094;17.002;2022-10-16T06:32:49;15.10;99.90
324;DHT22;149;51.094;17.002;2022-10-16T06:35:17;15.20;99.90
324;DHT22;149;51.094;17.002;2022-10-16T06:37:50;15.30;99.90
324;DHT22;149;51.094;17.002;2022-10-16T06:42:55;15.60;99.90
324;DHT22;149;51.094;17.002;2022-10-16T06:45:25;15.60;99.90
324;DHT22;149;51.094;17.002;2022-10-16T06:47:53;15.80;99.90
324;DHT22;149;51.094;17.002;2022-10-16T06:50:21;15.80;99.90
324;DHT22;149;51.094;17.002;2022-10-16T06:52:48;16.10;99.90
324;DHT22;149;51.094;17.002;2022-10-16T06:55:16;16.10;99.90
324;DHT22;149;51.094;17.002;2022-10-16T06:57:47;16.20;99.90
324;DHT22;149;51.094;17.002;2022-10-16T07:00:15;16.20;99.90
324;DHT22;149;51.094;17.002;2022-10-16T07:02:46;16.20;99.90
324;DHT22;149;51.094;17.002;2022-10-16T07:05:13;16.20;99.90
324;DHT22;149;51.094;17.002;2022-10-16T07:07:44;16.30;99.90
324;DHT22;149;51.094;17.002;2022-10-16T07:10:17;16.40;99.90
324;DHT22;149;51.094;17.002;2022-10-16T07:12:48;16.40;99.90
324;DHT22;149;51.094;17.002;2022-10-16T07:15:17;16.40;99.90
324;DHT22;149;51.094;17.002;2022-10-16T07:17:45;16.50;99.90
324;DHT22;149;51.094;17.002;2022-10-16T07:20:18;16.60;99.90
324;DHT22;149;51.094;17.002;2022-10-16T07:22:47;16.70;99.90
324;DHT22;149;51.094;17.002;2022-10-16T07:25:15;16.60;99.90
324;DHT22;149;51.094;17.002;2022-10-16T07:27:42;16.50;99.90
324;DHT22;149;51.094;17.002;2022-10-16T07:30:13;16.50;99.90
324;DHT22;149;51.094;17.002;2022-10-16T07:32:55;16.50;99.90
324;DHT22;149;51.094;17.002;2022-10-16T07:35:22;16.50;99.90
324;DHT22;149;51.094;17.002;2022-10-16T07:37:49;16.60;99.90
324;DHT22;149;51.094;17.002;2022-10-16T07:40:19;16.80;99.90
324;DHT22;149;51.094;17.002;2022-10-16T07:42:52;16.80;99.90
324;DHT22;149;51.094;17.002;2022-10-16T07:45:20;16.90;99.90
324;DHT22;149;51.094;17.002;2022-10-16T07:48:04;17.00;99.90
324;DHT22;149;51.094;17.002;2022-10-16T07:50:33;17.10;99.90
324;DHT22;149;51.094;17.002;2022-10-16T07:53:01;17.10;99.90
324;DHT22;149;51.094;17.002;2022-10-16T07:55:29;17.10;99.90
324;DHT22;149;51.094;17.002;2022-10-16T07:57:56;17.30;99.90
324;DHT22;149;51.094;17.002;2022-10-16T08:00:24;17.50;99.90
324;DHT22;149;51.094;17.002;2022-10-16T08:02:53;17.70;99.90
324;DHT22;149;51.094;17.002;2022-10-16T08:05:27;17.80;99.90
324;DHT22;149;51.094;17.002;2022-10-16T08:07:57;18.10;99.90
324;DHT22;149;51.094;17.002;2022-10-16T08:10:26;18.30;99.90
324;DHT22;149;51.094;17.002;2022-10-16T08:12:58;18.40;99.90
324;DHT22;149;51.094;17.002;2022-10-16T08:15:26;18.50;99.90
324;DHT22;149;51.094;17.002;2022-10-16T08:17:59;18.80;99.90
324;DHT22;149;51.094;17.002;2022-10-16T08:20:28;19.00;99.90
324;DHT22;149;51.094;17.002;2022-10-16T08:22:57;19.20;99.90
324;DHT22;149;51.094;17.002;2022-10-16T08:25:28;19.10;99.90
324;DHT22;149;51.094;17.002;2022-10-16T08:27:57;19.30;99.90
324;DHT22;149;51.094;17.002;2022-10-16T08:30:27;19.20;99.90
324;DHT22;149;51.094;17.002;2022-10-16T08:32:54;19.20;99.90
324;DHT22;149;51.094;17.002;2022-10-16T08:35:24;19.30;99.90
324;DHT22;149;51.094;17.002;2022-10-16T08:37:51;19.30;99.90
324;DHT22;149;51.094;17.002;2022-10-16T08:40:25;19.20;99.90
324;DHT22;149;51.094;17.002;2022-10-16T08:46:01;19.30;99.90
324;DHT22;149;51.094;17.002;2022-10-16T08:48:43;19.40;99.90
324;DHT22;149;51.094;17.002;2022-10-16T08:51:18;19.50;99.90
324;DHT22;149;51.094;17.002;2022-10-16T08:54:03;19.60;99.90
324;DHT22;149;51.094;17.002;2022-10-16T08:56:31;19.80;99.90
324;DHT22;149;51.094;17.002;2022-10-16T08:58:59;20.20;99.90
324;DHT22;149;51.094;17.002;2022-10-16T09:01:41;20.10;99.90
324;DHT22;149;51.094;17.002;2022-10-16T09:07:02;20.40;99.90
324;DHT22;149;51.094;17.002;2022-10-16T09:12:32;21.00;99.90
324;DHT22;149;51.094;17.002;2022-10-16T09:18:22;21.20;99.90
324;DHT22;149;51.094;17.002;2022-10-16T09:21:19;21.10;99.90
324;DHT22;149;51.094;17.002;2022-10-16T09:24:20;20.90;99.90
324;DHT22;149;51.094;17.002;2022-10-16T09:26:54;20.80;99.90
324;DHT22;149;51.094;17.002;2022-10-16T09:29:21;21.10;99.90
324;DHT22;149;51.094;17.002;2022-10-16T09:31:53;21.10;99.90
324;DHT22;149;51.094;17.002;2022-10-16T09:36:57;20.70;99.90
324;DHT22;149;51.094;17.002;2022-10-16T09:39:25;20.90;99.90
324;DHT22;149;51.094;17.002;2022-10-16T09:41:56;20.90;99.90
324;DHT22;149;51.094;17.002;2022-10-16T09:44:30;21.00;99.90
324;DHT22;149;51.094;17.002;2022-10-16T09:47:03;21.10;99.90
324;DHT22;149;51.094;17.002;2022-10-16T09:49:33;21.10;99.90
324;DHT22;149;51.094;17.002;2022-10-16T09:52:10;21.40;99.90
324;DHT22;149;51.094;17.002;2022-10-16T09:54:37;21.50;99.90
324;DHT22;149;51.094;17.002;2022-10-16T09:57:16;21.50;99.90
324;DHT22;149;51.094;17.002;2022-10-16T09:59:49;21.70;99.90
324;DHT22;149;51.094;17.002;2022-10-16T10:02:25;21.60;99.90
324;DHT22;149;51.094;17.002;2022-10-16T10:04:53;21.80;99.90
324;DHT22;149;51.094;17.002;2022-10-16T10:07:31;21.80;99.90
324;DHT22;149;51.094;17.002;2022-10-16T10:10:05;21.70;99.90
324;DHT22;149;51.094;17.002;2022-10-16T10:12:34;21.40;99.90
324;DHT22;149;51.094;17.002;2022-10-16T10:15:06;21.30;99.90
324;DHT22;149;51.094;17.002;2022-10-16T10:17:46;21.30;99.90
324;DHT22;149;51.094;17.002;2022-10-16T10:22:57;20.90;99.90
324;DHT22;149;51.094;17.002;2022-10-16T10:28:18;20.60;99.90
324;DHT22;149;51.094;17.002;2022-10-16T10:31:01;20.50;99.90
324;DHT22;149;51.094;17.002;2022-10-16T10:39:25;20.20;99.90
324;DHT22;149;51.094;17.002;2022-10-16T10:45:18;20.70;99.90
324;DHT22;149;51.094;17.002;2022-10-16T10:48:13;20.90;99.90
324;DHT22;149;51.094;17.002;2022-10-16T10:51:19;21.20;99.90
324;DHT22;149;51.094;17.002;2022-10-16T10:59:45;21.40;99.90
324;DHT22;149;51.094;17.002;2022-10-16T11:02:50;21.50;99.90
324;DHT22;149;51.094;17.002;2022-10-16T11:05:51;21.70;99.90
324;DHT22;149;51.094;17.002;2022-10-16T11:08:53;21.90;99.90
324;DHT22;149;51.094;17.002;2022-10-16T11:11:52;22.20;99.90
324;DHT22;149;51.094;17.002;2022-10-16T11:14:29;22.10;99.90
324;DHT22;149;51.094;17.002;2022-10-16T11:17:05;22.00;99.90
324;DHT22;149;51.094;17.002;2022-10-16T11:19:42;21.80;99.90
324;DHT22;149;51.094;17.002;2022-10-16T11:22:36;21.70;99.90
324;DHT22;149;51.094;17.002;2022-10-16T11:25:18;21.40;99.90
324;DHT22;149;51.094;17.002;2022-10-16T11:28:05;21.30;99.90
324;DHT22;149;51.094;17.002;2022-10-16T11:30:47;21.10;99.90
324;DHT22;149;51.094;17.002;2022-10-16T11:33:22;20.90;99.90
324;DHT22;149;51.094;17.002;2022-10-16T11:39:34;21.20;99.90
324;DHT22;149;51.094;17.002;2022-10-16T11:42:58;21.60;99.90
324;DHT22;149;51.094;17.002;2022-10-16T11:45:37;21.60;99.90
324;DHT22;149;51.094;17.002;2022-10-16T11:48:33;21.70;99.90
324;DHT22;149;51.094;17.002;2022-10-16T11:51:28;21.90;99.90
324;DHT22;149;51.094;17.002;2022-10-16T11:56:55;22.20;99.90
324;DHT22;149;51.094;17.002;2022-10-16T11:59:35;22.30;99.90
324;DHT22;149;51.094;17.002;2022-10-16T12:02:30;22.40;99.90
324;DHT22;149;51.094;17.002;2022-10-16T12:08:09;22.50;99.90
324;DHT22;149;51.094;17.002;2022-10-16T12:10:41;22.60;99.90
324;DHT22;149;51.094;17.002;2022-10-16T12:13:33;22.70;99.90
324;DHT22;149;51.094;17.002;2022-10-16T12:18:46;22.90;99.90
324;DHT22;149;51.094;17.002;2022-10-16T12:21:16;22.80;99.90
324;DHT22;149;51.094;17.002;2022-10-16T12:23:54;22.80;99.90
324;DHT22;149;51.094;17.002;2022-10-16T12:26:30;22.60;99.90
324;DHT22;149;51.094;17.002;2022-10-16T12:29:18;22.50;99.90
324;DHT22;149;51.094;17.002;2022-10-16T12:31:54;22.20;99.90
324;DHT22;149;51.094;17.002;2022-10-16T12:34:48;22.00;99.90
324;DHT22;149;51.094;17.002;2022-10-16T12:37:26;22.00;99.90
324;DHT22;149;51.094;17.002;2022-10-16T12:39:56;21.90;99.90
324;DHT22;149;51.094;17.002;2022-10-16T12:45:00;21.60;99.90
324;DHT22;149;51.094;17.002;2022-10-16T12:49:58;22.00;99.90
324;DHT22;149;51.094;17.002;2022-10-16T12:52:36;22.10;99.90
324;DHT22;149;51.094;17.002;2022-10-16T12:55:15;22.10;99.90
324;DHT22;149;51.094;17.002;2022-10-16T13:00:56;21.90;99.90
324;DHT22;149;51.094;17.002;2022-10-16T13:06:39;22.00;99.90
324;DHT22;149;51.094;17.002;2022-10-16T13:10:05;22.10;99.90
324;DHT22;149;51.094;17.002;2022-10-16T13:12:44;22.10;99.90
324;DHT22;149;51.094;17.002;2022-10-16T13:15:29;22.10;99.90
324;DHT22;149;51.094;17.002;2022-10-16T13:24:11;22.00;99.90
324;DHT22;149;51.094;17.002;2022-10-16T13:27:12;22.00;99.90
324;DHT22;149;51.094;17.002;2022-10-16T13:29:42;22.00;99.90
324;DHT22;149;51.094;17.002;2022-10-16T13:32:11;22.20;99.90
324;DHT22;149;51.094;17.002;2022-10-16T13:34:45;22.20;99.90
324;DHT22;149;51.094;17.002;2022-10-16T13:37:21;22.20;99.90
324;DHT22;149;51.094;17.002;2022-10-16T13:39:49;22.20;99.90
324;DHT22;149;51.094;17.002;2022-10-16T13:42:24;22.00;99.90
324;DHT22;149;51.094;17.002;2022-10-16T13:44:55;21.90;99.90
324;DHT22;149;51.094;17.002;2022-10-16T13:47:29;21.70;99.90
324;DHT22;149;51.094;17.002;2022-10-16T13:50:09;21.50;99.90
324;DHT22;149;51.094;17.002;2022-10-16T13:52:39;21.50;99.90
324;DHT22;149;51.094;17.002;2022-10-16T13:55:12;21.70;99.90
324;DHT22;149;51.094;17.002;2022-10-16T13:57:42;21.90;99.90
324;DHT22;149;51.094;17.002;2022-10-16T14:00:25;22.00;99.90
324;DHT22;149;51.094;17.002;2022-10-16T14:03:11;21.80;99.90
324;DHT22;149;51.094;17.002;2022-10-16T14:06:01;21.80;99.90
324;DHT22;149;51.094;17.002;2022-10-16T14:08:30;21.40;99.90
324;DHT22;149;51.094;17.002;2022-10-16T14:10:59;21.30;99.90
324;DHT22;149;51.094;17.002;2022-10-16T14:13:39;21.30;99.90
324;DHT22;149;51.094;17.002;2022-10-16T14:16:30;21.20;99.90
324;DHT22;149;51.094;17.002;2022-10-16T14:19:05;21.50;99.90
324;DHT22;149;51.094;17.002;2022-10-16T14:21:34;21.40;99.90
324;DHT22;149;51.094;17.002;2022-10-16T14:24:12;21.30;99.90
324;DHT22;149;51.094;17.002;2022-10-16T14:26:43;21.20;99.90
324;DHT22;149;51.094;17.002;2022-10-16T14:29:19;21.10;99.90
324;DHT22;149;51.094;17.002;2022-10-16T14:32:01;21.10;99.90
324;DHT22;149;51.094;17.002;2022-10-16T14:34:33;21.00;99.90
324;DHT22;149;51.094;17.002;2022-10-16T14:37:09;20.80;99.90
324;DHT22;149;51.094;17.002;2022-10-16T14:39:40;21.00;99.90
324;DHT22;149;51.094;17.002;2022-10-16T14:42:18;21.10;99.90
324;DHT22;149;51.094;17.002;2022-10-16T14:44:46;21.00;99.90
324;DHT22;149;51.094;17.002;2022-10-16T14:47:16;21.00;99.90
324;DHT22;149;51.094;17.002;2022-10-16T14:49:48;20.80;99.90
324;DHT22;149;51.094;17.002;2022-10-16T14:52:16;20.70;99.90
324;DHT22;149;51.094;17.002;2022-10-16T14:54:43;20.90;99.90
324;DHT22;149;51.094;17.002;2022-10-16T14:57:18;20.90;99.90
324;DHT22;149;51.094;17.002;2022-10-16T14:59:46;21.00;99.90
324;DHT22;149;51.094;17.002;2022-10-16T15:02:29;20.90;99.90
324;DHT22;149;51.094;17.002;2022-10-16T15:04:58;21.10;99.90
324;DHT22;149;51.094;17.002;2022-10-16T15:07:28;21.20;99.90
324;DHT22;149;51.094;17.002;2022-10-16T15:09:55;21.10;99.90
324;DHT22;149;51.094;17.002;2022-10-16T15:12:24;21.10;99.90
324;DHT22;149;51.094;17.002;2022-10-16T15:14:52;21.00;99.90
324;DHT22;149;51.094;17.002;2022-10-16T15:17:21;21.00;99.90
324;DHT22;149;51.094;17.002;2022-10-16T15:19:48;21.00;99.90
324;DHT22;149;51.094;17.002;2022-10-16T15:22:17;20.70;99.90
324;DHT22;149;51.094;17.002;2022-10-16T15:24:44;20.60;99.90
324;DHT22;149;51.094;17.002;2022-10-16T15:27:13;20.50;99.90
324;DHT22;149;51.094;17.002;2022-10-16T15:29:41;20.30;99.90
324;DHT22;149;51.094;17.002;2022-10-16T15:32:09;20.30;99.90
324;DHT22;149;51.094;17.002;2022-10-16T15:34:37;20.30;99.90
324;DHT22;149;51.094;17.002;2022-10-16T15:37:05;20.10;99.90
324;DHT22;149;51.094;17.002;2022-10-16T15:39:33;20.30;99.90
324;DHT22;149;51.094;17.002;2022-10-16T15:42:06;20.10;99.90
324;DHT22;149;51.094;17.002;2022-10-16T15:44:36;19.90;99.90
324;DHT22;149;51.094;17.002;2022-10-16T15:47:04;20.00;99.90
324;DHT22;149;51.094;17.002;2022-10-16T15:49:31;20.00;99.90
324;DHT22;149;51.094;17.002;2022-10-16T15:52:01;20.10;99.90
324;DHT22;149;51.094;17.002;2022-10-16T15:54:29;20.10;99.90
324;DHT22;149;51.094;17.002;2022-10-16T15:56:57;20.10;99.90
324;DHT22;149;51.094;17.002;2022-10-16T15:59:24;20.00;99.90
324;DHT22;149;51.094;17.002;2022-10-16T16:01:52;19.80;99.90
324;DHT22;149;51.094;17.002;2022-10-16T16:04:22;19.90;99.90
324;DHT22;149;51.094;17.002;2022-10-16T16:07:09;19.90;99.90
324;DHT22;149;51.094;17.002;2022-10-16T16:09:37;19.80;99.90
324;DHT22;149;51.094;17.002;2022-10-16T16:12:04;19.90;99.90
324;DHT22;149;51.094;17.002;2022-10-16T16:14:33;19.80;99.90
324;DHT22;149;51.094;17.002;2022-10-16T16:17:00;19.70;99.90
324;DHT22;149;51.094;17.002;2022-10-16T16:19:28;19.60;99.90
324;DHT22;149;51.094;17.002;2022-10-16T16:21:58;19.60;99.90
324;DHT22;149;51.094;17.002;2022-10-16T16:24:25;19.50;99.90
324;DHT22;149;51.094;17.002;2022-10-16T16:26:54;19.30;99.90
324;DHT22;149;51.094;17.002;2022-10-16T16:29:23;19.30;99.90
324;DHT22;149;51.094;17.002;2022-10-16T16:31:57;19.20;99.90
324;DHT22;149;51.094;17.002;2022-10-16T16:34:39;19.00;99.90
324;DHT22;149;51.094;17.002;2022-10-16T16:37:16;19.00;99.90
324;DHT22;149;51.094;17.002;2022-10-16T16:39:46;18.80;99.90
324;DHT22;149;51.094;17.002;2022-10-16T16:42:22;18.90;99.90
324;DHT22;149;51.094;17.002;2022-10-16T16:44:51;18.80;99.90
324;DHT22;149;51.094;17.002;2022-10-16T16:47:21;18.70;99.90
324;DHT22;149;51.094;17.002;2022-10-16T16:49:55;18.80;99.90
324;DHT22;149;51.094;17.002;2022-10-16T16:52:35;18.80;99.90
324;DHT22;149;51.094;17.002;2022-10-16T16:55:04;18.90;99.90
324;DHT22;149;51.094;17.002;2022-10-16T16:57:33;18.70;99.90
324;DHT22;149;51.094;17.002;2022-10-16T17:00:03;18.50;99.90
324;DHT22;149;51.094;17.002;2022-10-16T17:02:30;18.50;99.90
324;DHT22;149;51.094;17.002;2022-10-16T17:04:58;18.40;99.90
324;DHT22;149;51.094;17.002;2022-10-16T17:07:31;18.30;99.90
324;DHT22;149;51.094;17.002;2022-10-16T17:10:02;18.30;99.90
324;DHT22;149;51.094;17.002;2022-10-16T17:12:30;18.10;99.90
324;DHT22;149;51.094;17.002;2022-10-16T17:14:59;18.10;99.90
324;DHT22;149;51.094;17.002;2022-10-16T17:17:26;18.20;99.90
324;DHT22;149;51.094;17.002;2022-10-16T17:20:00;18.10;99.90
324;DHT22;149;51.094;17.002;2022-10-16T17:22:30;18.30;99.90
324;DHT22;149;51.094;17.002;2022-10-16T17:25:01;18.30;99.90
324;DHT22;149;51.094;17.002;2022-10-16T17:27:30;18.50;99.90
324;DHT22;149;51.094;17.002;2022-10-16T17:30:04;18.50;99.90
324;DHT22;149;51.094;17.002;2022-10-16T17:32:46;18.40;99.90
324;DHT22;149;51.094;17.002;2022-10-16T17:35:16;18.20;99.90
324;DHT22;149;51.094;17.002;2022-10-16T17:37:59;18.00;99.90
324;DHT22;149;51.094;17.002;2022-10-16T17:40:29;17.90;99.90
324;DHT22;149;51.094;17.002;2022-10-16T17:43:01;17.90;99.90
324;DHT22;149;51.094;17.002;2022-10-16T17:45:35;17.90;99.90
324;DHT22;149;51.094;17.002;2022-10-16T17:48:15;17.70;99.90
324;DHT22;149;51.094;17.002;2022-10-16T17:50:45;17.80;99.90
324;DHT22;149;51.094;17.002;2022-10-16T17:53:23;17.90;99.90
324;DHT22;149;51.094;17.002;2022-10-16T17:56:02;17.70;99.90
324;DHT22;149;51.094;17.002;2022-10-16T17:58:30;17.80;99.90
324;DHT22;149;51.094;17.002;2022-10-16T18:03:55;18.00;99.90
324;DHT22;149;51.094;17.002;2022-10-16T18:06:30;18.20;99.90
324;DHT22;149;51.094;17.002;2022-10-16T18:09:06;18.00;99.90
324;DHT22;149;51.094;17.002;2022-10-16T18:11:57;18.10;99.90
324;DHT22;149;51.094;17.002;2022-10-16T18:14:42;18.00;99.90
324;DHT22;149;51.094;17.002;2022-10-16T18:17:13;18.10;99.90
324;DHT22;149;51.094;17.002;2022-10-16T18:19:54;18.00;99.90